Saint Simons Island, GA (31522)

5:35 AM EDT on May 28, 2017 (GMT -0400)
McKinnon | | Change Station

Elev 20 ft 31.15 °N, 81.39 °W | Updated 42 minutes ago

Clear
Clear
73 °F
Feels Like 73 °F
N
9
Wind Variable Wind from WSW

Today
High -- | Low -- °F
--% Chance of Precip.
Yesterday
High -- | Low -- °F
Precip. -- in
Pressure 29.94 in
Visibility 10.0 miles
Clouds Clear
Dew Point 69 °F
Humidity 87%
Rainfall 0.00 in
Snow Depth Not available.
6:23 AM 8:22 PM
Waxing Crescent, 10% visible
METAR KSSI 280853Z AUTO 25008KT 10SM CLR 23/21 A2994 RMK AO2 SLP139 T02280206 58007
Pressure 29.94 in
Visibility 10.0 miles
Clouds Clear
Dew Point 69 °F
Humidity 87%
Rainfall 0.00 in
Snow Depth Not available.
6:23 AM 8:22 PM
Waxing Crescent, 10% visible
METAR KSSI 280853Z AUTO 25008KT 10SM CLR 23/21 A2994 RMK AO2 SLP139 T02280206 58007

Get Severe Weather Alerts

Thanks for signing up!

Be on the lookout for a verification email in your inbox.

You'll start receiving the daily forecast at 6 AM.

×

10-Day Weather Forecast

Almanac

Astronomy

May. 28, 2017 Rise Set
Actual Time
Civil Twilight
Nautical Twilight
Astronomical Twilight
Moon
Length of Visible Light
Length of Day
Tomorrow will be .
, % of the Moon is Illuminated

Today's Extremes

State Highs State Lows

Community

WunderPhotos

Category 6

Welcome to Category 6. This is the collective home for Weather Underground's featured writeups by Dr. Jeff Masters (right), Bob Henson (left), Chris Burt, and other regular contributors.

Nearby

Air Quality

  Air Quality AQ Index Pollutant
Not available.

Snow Depth

Station Depth Elevation

Earthquake Activity

City Distance Mag. Time & Date
Minimum magnitude displayed is 2.5.

Coastal Water Temperatures

Place Temperature

Stations

Nearby Weather Stations

Station Location Temp. Windchill Dew Point Humidity Wind Precip. Elev Updated Type
                   

Watches & Warnings

There are currently no watches in effect.